Time;durP1;ratioP1;P1;durP2;ratioP2;P2;SDS_P1;SDS_P2;PMS_P1;PMS_P2;Temp;Humidity;BMP_temperature;BMP_pressure;BME280_temperature;BME280_humidity;BME280_pressure;Samples;Min_cycle;Max_cycle;Signal;HPM_P1;HPM_P2
2021/12/20 00:00:17;;;;;;;11.52;1.08;;;7.50;99.90;;;;;;10203438;28;86308;-51
2021/12/20 00:05:19;;;;;;;7.10;1.13;;;7.50;99.90;;;;;;10207024;28;83319;-50
2021/12/20 00:10:20;;;;;;;3.92;1.00;;;7.40;99.90;;;;;;10204639;28;84155;-50
2021/12/20 00:15:21;;;;;;;4.97;0.98;;;7.40;99.90;;;;;;10212045;28;83725;-48
2021/12/20 00:20:21;;;;;;;18.88;2.10;;;7.30;99.90;;;;;;10211504;28;83906;-46
2021/12/20 00:25:22;;;;;;;8.82;0.98;;;7.30;99.90;;;;;;10211229;28;84232;-49
2021/12/20 00:30:23;;;;;;;9.98;1.67;;;7.10;99.90;;;;;;10210691;28;84249;-51
2021/12/20 00:35:25;;;;;;;12.25;2.17;;;7.00;99.90;;;;;;10211655;28;84003;-51
2021/12/20 00:40:26;;;;;;;13.15;1.52;;;6.80;99.90;;;;;;10210354;28;83344;-47
2021/12/20 00:45:35;;;;;;;7.28;1.15;;;6.80;99.90;;;;;;10209530;28;85371;-46
2021/12/20 00:50:39;;;;;;;9.25;1.73;;;6.70;99.90;;;;;;10211870;28;84080;-45
2021/12/20 00:55:40;;;;;;;6.13;1.13;;;6.50;99.90;;;;;;10211499;28;84256;-51
2021/12/20 01:00:48;;;;;;;7.35;1.20;;;6.50;99.90;;;;;;10212052;28;84086;-47
2021/12/20 01:05:49;;;;;;;7.65;1.40;;;6.50;99.90;;;;;;10210884;28;84300;-44
2021/12/20 01:10:53;;;;;;;5.93;1.08;;;6.30;99.90;;;;;;10210556;28;83784;-45
2021/12/20 01:15:55;;;;;;;15.10;1.83;;;6.20;99.90;;;;;;10209808;28;83975;-44
2021/12/20 01:20:55;;;;;;;10.32;1.25;;;6.30;99.90;;;;;;10209172;28;83980;-48
2021/12/20 01:25:56;;;;;;;11.63;1.63;;;6.30;99.90;;;;;;10210236;28;84156;-46
2021/12/20 01:30:57;;;;;;;10.63;1.17;;;6.20;99.90;;;;;;10210317;28;83601;-46
2021/12/20 01:35:58;;;;;;;3.83;1.05;;;6.10;99.90;;;;;;10210499;28;84102;-50
2021/12/20 01:40:59;;;;;;;9.63;1.63;;;6.00;99.90;;;;;;10209174;28;84097;-47
2021/12/20 01:46:00;;;;;;;7.93;1.55;;;6.00;99.90;;;;;;10208839;28;85247;-45
2021/12/20 01:51:18;;;;;;;9.50;1.45;;;5.90;99.90;;;;;;10207841;28;85580;-46
2021/12/20 01:56:19;;;;;;;4.45;0.68;;;5.80;99.90;;;;;;10208315;28;83611;-48
2021/12/20 02:01:20;;;;;;;7.82;1.35;;;5.80;99.90;;;;;;10208790;28;84063;-46
2021/12/20 02:11:30;;;;;;;10.20;0.95;;;5.60;99.90;;;;;;10200357;28;84349;-45
2021/12/20 02:16:32;;;;;;;6.10;0.85;;;5.60;99.90;;;;;;10207655;28;83765;-46
2021/12/20 02:21:33;;;;;;;5.88;1.30;;;5.50;99.90;;;;;;10208212;28;83849;-48
2021/12/20 02:26:33;;;;;;;9.70;1.88;;;5.50;99.90;;;;;;10207573;28;83726;-46
2021/12/20 02:37:15;;;;;;;10.40;1.25;;;5.40;99.90;;;;;;10207851;28;84006;-45
2021/12/20 02:42:20;;;;;;;8.45;1.33;;;5.40;99.90;;;;;;10198573;28;86073;-45
2021/12/20 02:47:28;;;;;;;5.40;1.80;;;5.30;99.90;;;;;;10207423;28;84485;-44
2021/12/20 02:52:30;;;;;;;7.75;1.50;;;5.30;99.90;;;;;;10208046;28;83572;-44
2021/12/20 02:57:34;;;;;;;7.10;1.33;;;5.20;99.90;;;;;;10206691;28;83735;-44
2021/12/20 03:02:35;;;;;;;10.88;1.50;;;5.20;99.90;;;;;;10207830;28;83860;-47
2021/12/20 03:07:46;;;;;;;18.60;1.52;;;5.20;99.90;;;;;;10206692;28;83668;-46
2021/12/20 03:12:49;;;;;;;6.45;1.23;;;5.20;99.90;;;;;;10206634;28;83653;-45
2021/12/20 03:17:52;;;;;;;8.18;1.40;;;5.30;99.90;;;;;;10197462;28;84001;-47
2021/12/20 03:22:53;;;;;;;7.13;1.38;;;5.40;99.90;;;;;;10204861;28;83808;-47
2021/12/20 03:27:54;;;;;;;11.38;1.88;;;5.50;99.90;;;;;;10204885;28;84082;-47
2021/12/20 03:32:56;;;;;;;7.90;1.33;;;5.50;99.90;;;;;;10206006;28;84020;-50
2021/12/20 03:37:57;;;;;;;12.85;1.85;;;5.50;99.90;;;;;;10205235;28;83758;-46
2021/12/20 03:42:58;;;;;;;8.55;1.20;;;5.50;99.90;;;;;;10211437;28;84405;-46
2021/12/20 03:48:00;;;;;;;8.73;1.33;;;5.40;99.90;;;;;;10212550;28;84170;-46
2021/12/20 03:53:00;;;;;;;7.43;1.50;;;5.30;99.90;;;;;;10213400;28;84047;-45
2021/12/20 03:58:01;;;;;;;4.97;0.98;;;5.20;99.90;;;;;;10209106;28;86590;-50
2021/12/20 04:03:08;;;;;;;8.02;1.13;;;5.10;99.90;;;;;;10213148;28;83926;-45
2021/12/20 04:08:08;;;;;;;4.18;0.93;;;5.10;99.90;;;;;;10211791;28;83676;-47
2021/12/20 04:13:09;;;;;;;7.97;0.98;;;5.10;99.90;;;;;;10212774;28;84217;-45
2021/12/20 04:18:10;;;;;;;11.93;1.60;;;5.00;99.90;;;;;;10211712;28;84120;-48
2021/12/20 04:23:11;;;;;;;10.25;1.15;;;4.90;99.90;;;;;;10212514;28;84075;-45
2021/12/20 04:28:12;;;;;;;5.00;1.02;;;4.90;99.90;;;;;;10209445;28;85171;-44
2021/12/20 04:33:13;;;;;;;7.88;1.27;;;4.80;99.90;;;;;;10211758;28;84152;-44
2021/12/20 04:38:14;;;;;;;10.48;2.08;;;4.70;99.90;;;;;;10211135;28;83879;-46
2021/12/20 04:43:15;;;;;;;8.55;0.98;;;4.70;99.90;;;;;;10210966;28;83653;-46
2021/12/20 04:48:15;;;;;;;4.85;1.40;;;4.60;99.90;;;;;;10210443;28;83672;-52
2021/12/20 04:53:16;;;;;;;5.13;0.75;;;4.50;99.90;;;;;;10210062;28;83311;-45
2021/12/20 04:58:17;;;;;;;8.13;1.17;;;4.50;99.90;;;;;;10209376;28;85147;-46
2021/12/20 05:03:17;;;;;;;15.05;1.50;;;4.50;99.90;;;;;;10210409;28;84096;-46
2021/12/20 05:08:19;;;;;;;3.92;1.33;;;4.50;99.90;;;;;;10209490;28;84259;-46
2021/12/20 05:13:20;;;;;;;6.13;1.25;;;4.50;99.90;;;;;;10210154;28;83743;-47
2021/12/20 05:18:20;;;;;;;2.58;1.02;;;4.50;99.90;;;;;;10209715;28;83699;-48
2021/12/20 05:23:21;;;;;;;9.60;1.60;;;4.50;99.90;;;;;;10211144;28;83799;-48
2021/12/20 05:28:23;;;;;;;8.50;1.33;;;4.40;99.90;;;;;;10223687;23;85006;-54
2021/12/20 05:33:24;;;;;;;8.90;1.23;;;4.40;99.90;;;;;;10208970;28;84265;-52
2021/12/20 05:38:24;;;;;;;10.45;1.90;;;4.30;99.90;;;;;;10206448;28;85563;-52
2021/12/20 05:43:25;;;;;;;10.43;1.38;;;4.20;99.90;;;;;;10207811;28;84212;-51
2021/12/20 05:48:26;;;;;;;19.95;2.05;;;4.20;99.90;;;;;;10209579;28;83343;-53
2021/12/20 05:53:26;;;;;;;16.63;2.00;;;4.20;99.90;;;;;;10207648;28;84243;-53
2021/12/20 05:58:27;;;;;;;8.45;1.40;;;4.10;99.90;;;;;;10208268;28;84324;-51
2021/12/20 06:03:28;;;;;;;7.85;1.75;;;4.00;99.90;;;;;;10208053;28;83973;-54
2021/12/20 06:08:28;;;;;;;6.35;1.30;;;4.00;99.90;;;;;;10209029;28;83210;-48
2021/12/20 06:13:29;;;;;;;4.38;1.48;;;3.90;99.90;;;;;;10208865;28;83714;-53
2021/12/20 06:18:29;;;;;;;6.03;0.80;;;4.00;99.90;;;;;;10209286;28;83267;-50
2021/12/20 06:23:30;;;;;;;9.02;1.60;;;3.90;99.90;;;;;;10209839;28;85105;-50
2021/12/20 06:28:31;;;;;;;6.25;1.25;;;3.90;99.90;;;;;;10210714;28;83967;-54
2021/12/20 06:33:31;;;;;;;5.45;1.90;;;3.80;99.90;;;;;;10210253;28;83416;-51
2021/12/20 06:38:34;;;;;;;17.95;2.35;;;3.80;99.90;;;;;;10208765;28;83932;-51
2021/12/20 06:43:35;;;;;;;6.85;1.48;;;3.80;99.90;;;;;;10207685;28;84004;-51
2021/12/20 06:48:36;;;;;;;13.32;2.03;;;3.80;99.90;;;;;;10208430;28;83358;-57
2021/12/20 06:53:36;;;;;;;6.72;1.60;;;3.70;99.90;;;;;;10206776;28;83296;-52
2021/12/20 06:58:37;;;;;;;2.30;1.45;;;3.70;99.90;;;;;;10206819;28;84332;-53
2021/12/20 07:03:38;;;;;;;7.03;1.52;;;3.70;99.90;;;;;;10206972;28;84062;-53
2021/12/20 07:08:39;;;;;;;5.15;1.63;;;3.60;99.90;;;;;;10206903;28;84443;-51
2021/12/20 07:13:40;;;;;;;7.05;1.65;;;3.60;99.90;;;;;;10206851;28;83469;-54
2021/12/20 07:18:40;;;;;;;5.75;2.08;;;3.50;99.90;;;;;;10204207;28;83371;-53
2021/12/20 07:23:41;;;;;;;8.95;2.00;;;3.50;99.90;;;;;;10204861;28;83387;-54
2021/12/20 07:28:43;;;;;;;9.27;2.10;;;3.40;99.90;;;;;;10204690;28;84166;-55
2021/12/20 07:33:44;;;;;;;8.65;2.08;;;3.40;99.90;;;;;;10207128;28;83716;-52
2021/12/20 07:38:45;;;;;;;6.15;1.98;;;3.30;99.90;;;;;;10203893;28;84353;-56
2021/12/20 07:43:47;;;;;;;6.55;2.00;;;3.30;99.90;;;;;;10207057;28;84257;-54
2021/12/20 07:48:49;;;;;;;12.77;2.45;;;3.30;99.90;;;;;;10204487;28;84028;-52
2021/12/20 07:53:50;;;;;;;6.22;1.30;;;3.30;99.90;;;;;;10206207;28;84431;-51
2021/12/20 07:58:50;;;;;;;6.40;1.63;;;3.30;99.90;;;;;;10202871;28;84322;-51
2021/12/20 08:03:51;;;;;;;8.18;1.85;;;3.30;99.90;;;;;;10204720;28;84289;-51
2021/12/20 08:08:52;;;;;;;9.38;2.28;;;3.30;99.90;;;;;;10204169;28;84045;-53
2021/12/20 08:13:52;;;;;;;8.15;2.38;;;3.50;99.90;;;;;;10205088;28;84033;-54
2021/12/20 08:18:53;;;;;;;5.40;1.60;;;3.60;99.90;;;;;;10205228;28;84172;-55
2021/12/20 08:23:54;;;;;;;11.15;2.05;;;3.80;99.90;;;;;;10206349;28;83782;-54
2021/12/20 08:28:54;;;;;;;11.25;2.05;;;3.80;99.90;;;;;;10209252;28;83778;-55
2021/12/20 08:33:55;;;;;;;13.13;2.25;;;3.90;99.90;;;;;;10211772;28;83341;-52
2021/12/20 08:38:56;;;;;;;7.10;1.98;;;3.90;99.90;;;;;;10210665;28;84149;-56
2021/12/20 08:43:56;;;;;;;7.60;2.08;;;4.20;99.90;;;;;;10211656;28;83426;-54
2021/12/20 08:48:57;;;;;;;7.97;1.90;;;4.50;99.90;;;;;;10208937;28;83343;-51
2021/12/20 08:53:57;;;;;;;13.15;2.03;;;4.90;99.90;;;;;;10204958;28;83245;-54
2021/12/20 08:58:58;;;;;;;7.18;1.83;;;5.30;99.90;;;;;;10210388;28;83587;-52
2021/12/20 09:03:59;;;;;;;9.95;2.35;;;5.30;99.90;;;;;;10210795;28;83310;-56
2021/12/20 09:09:00;;;;;;;12.90;3.25;;;5.30;99.90;;;;;;10211437;28;83244;-54
2021/12/20 09:14:01;;;;;;;11.20;2.42;;;5.60;99.90;;;;;;10208358;28;84078;-52
2021/12/20 09:19:03;;;;;;;11.27;2.17;;;6.00;99.90;;;;;;10208604;28;85127;-54
2021/12/20 09:24:04;;;;;;;18.63;3.95;;;6.40;99.90;;;;;;10211560;28;84078;-54
2021/12/20 09:29:05;;;;;;;17.80;5.65;;;6.60;99.90;;;;;;10210195;28;83507;-55
2021/12/20 09:34:06;;;;;;;11.15;4.95;;;6.70;99.90;;;;;;10210769;28;84398;-54
2021/12/20 09:39:10;;;;;;;12.70;3.83;;;6.90;99.90;;;;;;10209044;28;84501;-54
2021/12/20 09:44:11;;;;;;;20.95;4.75;;;7.50;99.90;;;;;;10211380;28;83365;-59
2021/12/20 09:49:12;;;;;;;23.17;5.43;;;8.20;99.90;;;;;;10211242;28;84114;-55
2021/12/20 09:54:13;;;;;;;20.83;5.13;;;9.20;99.90;;;;;;10212361;28;83370;-55
2021/12/20 09:59:18;;;;;;;18.15;5.00;;;9.40;99.90;;;;;;10211279;28;85415;-53
2021/12/20 10:04:22;;;;;;;20.98;5.03;;;10.00;99.90;;;;;;10211089;28;84277;-55
2021/12/20 10:09:29;;;;;;;16.30;4.90;;;10.00;99.90;;;;;;10210824;28;83741;-53
2021/12/20 10:14:29;;;;;;;13.13;4.28;;;8.90;99.90;;;;;;10213024;28;84043;-55
2021/12/20 10:19:33;;;;;;;16.52;4.75;;;8.00;99.90;;;;;;10212394;28;83225;-53
2021/12/20 10:24:36;;;;;;;18.95;5.53;;;7.30;99.90;;;;;;10212601;28;84256;-55
2021/12/20 10:29:37;;;;;;;19.98;5.15;;;7.00;99.90;;;;;;10209392;28;84135;-54
2021/12/20 10:34:38;;;;;;;14.90;4.38;;;6.80;99.90;;;;;;10210162;28;84010;-55
2021/12/20 10:39:43;;;;;;;13.00;3.33;;;6.50;99.90;;;;;;10208569;28;84097;-55
2021/12/20 10:44:44;;;;;;;13.23;4.00;;;6.40;99.90;;;;;;10209671;28;83323;-54
2021/12/20 10:49:45;;;;;;;13.98;3.75;;;6.30;99.90;;;;;;10207463;28;83351;-55
2021/12/20 10:54:45;;;;;;;14.13;3.90;;;6.30;99.90;;;;;;10208521;28;83414;-55
2021/12/20 10:59:49;;;;;;;10.68;3.05;;;6.10;99.90;;;;;;10208458;28;84294;-53
2021/12/20 11:04:57;;;;;;;13.13;3.85;;;6.20;99.90;;;;;;10208698;28;84164;-55
2021/12/20 11:10:05;;;;;;;10.57;3.25;;;6.00;99.90;;;;;;10207697;28;83248;-55
2021/12/20 11:15:11;;;;;;;8.32;3.08;;;6.00;99.90;;;;;;10204307;28;84263;-51
2021/12/20 11:20:20;;;;;;;11.35;3.45;;;6.00;99.90;;;;;;10198337;28;83972;-56
2021/12/20 11:25:21;;;;;;;13.57;3.22;;;6.10;99.90;;;;;;10205740;28;84070;-55
2021/12/20 11:30:24;;;;;;;15.20;3.22;;;6.20;99.90;;;;;;10188025;23;83615;-44
2021/12/20 11:35:27;;;;;;;8.68;2.70;;;6.20;99.90;;;;;;10165032;28;83978;-44
2021/12/20 11:40:27;;;;;;;10.70;2.80;;;6.20;99.90;;;;;;10165435;28;84149;-44
2021/12/20 11:45:28;;;;;;;9.27;2.30;;;6.30;99.90;;;;;;10147851;28;84250;-52
2021/12/20 11:50:37;;;;;;;4.85;1.52;;;6.20;99.90;;;;;;10147911;28;84199;-46
2021/12/20 11:55:45;;;;;;;4.45;1.92;;;6.20;99.90;;;;;;10165888;28;83846;-45
2021/12/20 12:00:54;;;;;;;16.20;2.42;;;6.20;99.90;;;;;;10147426;28;83765;-43
2021/12/20 12:06:04;;;;;;;8.25;1.80;;;6.20;99.90;;;;;;10155515;28;84169;-45
2021/12/20 12:11:04;;;;;;;5.38;2.03;;;6.20;99.90;;;;;;10153481;28;84131;-43
2021/12/20 12:16:05;;;;;;;6.85;2.00;;;6.20;99.90;;;;;;10172698;28;83795;-45
2021/12/20 12:21:07;;;;;;;9.90;2.30;;;6.30;99.90;;;;;;10171838;28;84121;-42
2021/12/20 12:26:09;;;;;;;5.70;1.95;;;6.30;99.90;;;;;;10171247;28;83935;-43
2021/12/20 12:31:10;;;;;;;8.57;1.85;;;6.40;99.90;;;;;;10170752;28;84131;-44
2021/12/20 12:36:24;;;;;;;4.35;1.20;;;6.30;99.90;;;;;;10170558;28;83801;-42
2021/12/20 12:41:27;;;;;;;4.93;1.00;;;6.40;99.90;;;;;;10169000;28;84167;-43
2021/12/20 12:46:48;;;;;;;2.58;1.10;;;6.40;99.90;;;;;;10170033;28;84318;-42
2021/12/20 12:51:50;;;;;;;5.13;1.60;;;6.30;99.90;;;;;;10168538;28;84008;-42
2021/12/20 12:56:51;;;;;;;6.13;1.13;;;6.20;99.90;;;;;;10170691;28;84110;-43
2021/12/20 13:01:57;;;;;;;4.00;0.93;;;6.20;99.90;;;;;;10171190;28;84039;-43
2021/12/20 13:06:58;;;;;;;2.65;1.13;;;6.20;99.90;;;;;;10169962;28;84003;-42
2021/12/20 13:17:31;;;;;;;3.85;1.10;;;6.30;99.90;;;;;;10170992;28;83930;-43
2021/12/20 13:22:31;;;;;;;5.70;1.23;;;6.30;99.90;;;;;;10171311;28;83642;-45
2021/12/20 13:27:32;;;;;;;5.30;1.33;;;6.30;99.90;;;;;;10171174;28;83705;-45
2021/12/20 13:32:33;;;;;;;7.85;2.10;;;6.30;99.90;;;;;;10166850;28;83829;-45
2021/12/20 13:37:39;;;;;;;5.70;2.08;;;6.10;99.90;;;;;;10169097;28;84040;-46
2021/12/20 13:42:50;;;;;;;9.95;2.50;;;6.20;99.90;;;;;;10168075;28;84043;-44
2021/12/20 13:47:51;;;;;;;8.45;2.78;;;6.30;99.90;;;;;;10150331;28;83951;-42
2021/12/20 13:52:52;;;;;;;15.70;3.03;;;6.40;99.90;;;;;;10168582;28;84276;-44
2021/12/20 13:57:52;;;;;;;15.02;3.47;;;6.40;99.90;;;;;;10165189;28;84020;-46
2021/12/20 14:02:53;;;;;;;7.25;3.08;;;6.30;99.90;;;;;;10184156;28;86315;-44
2021/12/20 14:07:59;;;;;;;10.57;2.95;;;6.00;99.90;;;;;;10151453;28;83652;-43
2021/12/20 14:13:02;;;;;;;11.27;2.85;;;6.00;99.90;;;;;;10168995;28;83791;-47
2021/12/20 14:18:08;;;;;;;6.82;2.63;;;5.90;99.90;;;;;;10169393;28;84010;-48
2021/12/20 14:23:14;;;;;;;6.53;2.13;;;5.90;99.90;;;;;;10166416;28;83880;-42
2021/12/20 14:28:26;;;;;;;4.13;1.88;;;5.80;99.90;;;;;;10162267;28;83721;-42
2021/12/20 14:33:36;;;;;;;6.57;2.40;;;5.60;99.90;;;;;;10168777;28;84126;-43
2021/12/20 14:38:46;;;;;;;5.43;2.03;;;5.50;99.90;;;;;;10166025;28;83754;-43
2021/12/20 14:43:48;;;;;;;10.07;2.60;;;5.40;99.90;;;;;;10166114;28;84225;-42
2021/12/20 14:48:54;;;;;;;5.40;2.30;;;5.20;99.90;;;;;;10179739;28;83919;-43
2021/12/20 14:54:08;;;;;;;9.15;2.53;;;5.00;99.90;;;;;;10166437;28;84170;-47
2021/12/20 14:59:09;;;;;;;9.23;2.30;;;5.00;99.90;;;;;;10177884;28;83752;-45
2021/12/20 15:04:09;;;;;;;4.25;2.30;;;4.80;99.90;;;;;;10167944;28;84731;-47
2021/12/20 15:09:11;;;;;;;6.28;2.90;;;4.90;99.90;;;;;;10168431;28;84209;-43
2021/12/20 15:14:12;;;;;;;9.95;2.47;;;4.70;99.90;;;;;;10164474;28;83970;-44
2021/12/20 15:19:12;;;;;;;3.53;2.20;;;4.50;99.90;;;;;;10181404;28;83823;-45
2021/12/20 15:24:13;;;;;;;9.00;2.42;;;4.40;99.90;;;;;;10179933;28;83746;-43
2021/12/20 15:29:14;;;;;;;3.65;1.73;;;4.20;99.90;;;;;;10185808;28;83672;-44
2021/12/20 15:34:14;;;;;;;5.88;2.60;;;4.00;99.90;;;;;;10174135;28;84185;-44
2021/12/20 15:39:15;;;;;;;7.28;2.20;;;3.90;99.90;;;;;;10165572;28;84123;-43
2021/12/20 15:44:16;;;;;;;6.68;2.55;;;3.80;99.90;;;;;;10179134;28;84197;-45
2021/12/20 15:49:17;;;;;;;6.97;2.58;;;3.70;99.90;;;;;;10171496;28;84267;-45
2021/12/20 15:54:18;;;;;;;2.28;1.63;;;3.50;99.90;;;;;;10170252;28;84210;-47
2021/12/20 15:59:22;;;;;;;7.20;2.05;;;3.30;99.90;;;;;;10190692;28;83908;-50
2021/12/20 16:04:23;;;;;;;6.97;2.08;;;3.00;99.90;;;;;;10164759;28;84182;-45
2021/12/20 16:09:24;;;;;;;3.35;1.70;;;2.90;99.90;;;;;;10162857;28;83905;-44
2021/12/20 16:14:24;;;;;;;4.18;1.83;;;2.50;99.90;;;;;;10165304;28;85386;-55
2021/12/20 16:19:25;;;;;;;4.57;2.15;;;2.30;99.90;;;;;;10164383;28;84303;-46
2021/12/20 16:24:26;;;;;;;2.80;1.60;;;2.00;99.90;;;;;;10165467;28;84823;-44
2021/12/20 16:29:27;;;;;;;4.82;1.85;;;2.00;99.90;;;;;;10166858;28;83715;-45
2021/12/20 16:34:27;;;;;;;6.32;2.35;;;1.80;99.90;;;;;;10160915;28;83850;-45
2021/12/20 16:39:31;;;;;;;4.15;2.00;;;1.80;99.90;;;;;;10143473;28;84296;-47
2021/12/20 16:44:37;;;;;;;3.80;2.28;;;1.70;99.90;;;;;;10163737;28;84353;-45
2021/12/20 16:49:37;;;;;;;5.22;2.30;;;1.70;99.90;;;;;;10167006;28;84654;-44
2021/12/20 16:54:38;;;;;;;5.50;2.85;;;1.50;99.90;;;;;;10171115;28;87016;-46
2021/12/20 16:59:40;;;;;;;5.13;1.90;;;1.50;99.90;;;;;;10171331;28;84096;-46
2021/12/20 17:04:42;;;;;;;3.47;2.33;;;1.50;99.90;;;;;;10169287;28;85143;-49
2021/12/20 17:09:43;;;;;;;6.47;2.25;;;1.40;99.90;;;;;;10169230;28;83767;-49
2021/12/20 17:14:44;;;;;;;4.57;1.35;;;1.20;99.90;;;;;;10191015;28;83946;-44
2021/12/20 17:19:44;;;;;;;3.85;1.75;;;1.20;99.90;;;;;;10211809;28;84171;-48
2021/12/20 17:24:47;;;;;;;5.93;1.83;;;1.10;99.90;;;;;;10155817;28;85429;-46
2021/12/20 17:29:48;;;;;;;4.68;1.58;;;1.00;99.90;;;;;;10179383;23;83871;-49
2021/12/20 17:34:48;;;;;;;2.95;1.40;;;0.90;99.90;;;;;;10175772;28;84189;-51
2021/12/20 17:39:49;;;;;;;2.85;1.88;;;0.90;99.90;;;;;;10164320;28;83418;-49
2021/12/20 17:44:50;;;;;;;5.60;2.60;;;0.80;99.90;;;;;;10170002;28;83783;-54
2021/12/20 17:49:50;;;;;;;3.25;1.60;;;0.80;99.90;;;;;;10170092;28;83276;-50
2021/12/20 17:54:51;;;;;;;3.58;2.58;;;0.90;99.90;;;;;;10154231;28;84146;-53
2021/12/20 17:59:52;;;;;;;5.15;2.00;;;0.80;99.90;;;;;;10146387;28;84532;-55
2021/12/20 18:04:57;;;;;;;5.35;2.58;;;0.80;99.90;;;;;;10149367;28;85988;-56
2021/12/20 18:10:01;;;;;;;4.70;2.47;;;0.80;99.90;;;;;;10165681;28;83560;-51
2021/12/20 18:15:03;;;;;;;7.07;3.38;;;0.80;99.90;;;;;;10164723;28;84131;-48
2021/12/20 18:20:06;;;;;;;4.80;2.63;;;0.80;99.90;;;;;;10159794;28;84062;-55
2021/12/20 18:25:07;;;;;;;8.50;4.38;;;0.80;99.90;;;;;;10164382;28;84323;-51
2021/12/20 18:30:08;;;;;;;5.07;3.00;;;0.90;99.90;;;;;;10164564;28;84050;-55
2021/12/20 18:35:09;;;;;;;5.75;2.90;;;0.90;99.90;;;;;;10160227;28;83515;-50
2021/12/20 18:40:13;;;;;;;5.30;2.28;;;0.80;99.90;;;;;;10159777;28;83872;-52
2021/12/20 18:45:14;;;;;;;4.97;2.75;;;0.70;99.90;;;;;;10161734;28;83583;-51
2021/12/20 18:50:17;;;;;;;3.97;2.33;;;0.60;99.90;;;;;;10165553;28;83233;-53
2021/12/20 18:55:17;;;;;;;3.70;2.50;;;0.60;99.90;;;;;;10166003;28;84049;-51
2021/12/20 19:00:18;;;;;;;5.40;2.55;;;0.60;99.90;;;;;;10161110;28;83928;-51
2021/12/20 19:05:20;;;;;;;4.80;2.90;;;0.50;99.90;;;;;;10164824;28;83638;-65
2021/12/20 19:10:25;;;;;;;5.10;2.60;;;0.40;99.90;;;;;;10162394;28;83988;-51
2021/12/20 19:15:26;;;;;;;7.53;3.50;;;0.30;99.90;;;;;;10162119;28;84102;-55
2021/12/20 19:20:27;;;;;;;11.75;3.75;;;0.30;99.90;;;;;;10144399;28;83430;-52
2021/12/20 19:25:30;;;;;;;7.28;4.07;;;0.20;99.90;;;;;;10144506;28;84213;-47
2021/12/20 19:30:31;;;;;;;11.10;4.45;;;0.20;99.90;;;;;;10160056;28;83697;-54
2021/12/20 19:35:31;;;;;;;14.32;7.75;;;0.20;99.90;;;;;;10163422;28;84157;-51
2021/12/20 19:40:32;;;;;;;15.60;7.40;;;0.30;99.90;;;;;;10156370;28;84289;-55
2021/12/20 19:45:33;;;;;;;14.82;6.40;;;0.30;99.90;;;;;;10162711;28;83210;-54
2021/12/20 19:50:34;;;;;;;13.07;6.05;;;0.30;99.90;;;;;;10158916;28;84168;-54
2021/12/20 19:55:37;;;;;;;22.20;7.43;;;0.20;99.90;;;;;;10154742;28;83440;-49
2021/12/20 20:00:38;;;;;;;13.20;6.13;;;0.20;99.90;;;;;;10162844;28;84291;-56
2021/12/20 20:05:39;;;;;;;17.75;8.35;;;0.20;99.90;;;;;;10155020;28;83969;-51
2021/12/20 20:10:39;;;;;;;14.13;7.43;;;0.20;99.90;;;;;;10164590;28;84072;-51
2021/12/20 20:15:40;;;;;;;17.30;8.60;;;0.10;99.90;;;;;;10161985;28;84131;-51
2021/12/20 20:20:41;;;;;;;17.45;8.15;;;0.20;99.90;;;;;;10163389;28;84240;-53
2021/12/20 20:25:42;;;;;;;17.65;6.63;;;0.20;99.90;;;;;;10162681;28;83493;-52
2021/12/20 20:30:42;;;;;;;14.90;6.97;;;0.30;99.90;;;;;;10162087;28;84126;-49
2021/12/20 20:35:43;;;;;;;13.65;6.20;;;0.30;99.90;;;;;;10172029;28;83712;-53
2021/12/20 20:40:44;;;;;;;11.73;5.90;;;0.10;99.90;;;;;;10171554;28;84169;-51
2021/12/20 20:45:45;;;;;;;8.88;4.78;;;0.10;99.90;;;;;;10172251;28;84051;-53
2021/12/20 20:50:45;;;;;;;15.40;6.13;;;0.10;99.90;;;;;;10167096;28;83876;-48
2021/12/20 20:55:46;;;;;;;16.13;7.80;;;0.10;99.90;;;;;;10169152;28;83727;-49
2021/12/20 21:06:06;;;;;;;12.65;5.80;;;0.10;99.90;;;;;;10172053;28;84188;-47
2021/12/20 21:11:07;;;;;;;17.17;5.93;;;0.00;99.90;;;;;;10169009;28;85005;-52
2021/12/20 21:16:07;;;;;;;11.52;5.40;;;0.00;99.90;;;;;;10167553;28;83461;-49
2021/12/20 21:21:10;;;;;;;11.55;4.72;;;0.00;99.90;;;;;;10164319;28;83913;-52
2021/12/20 21:26:10;;;;;;;17.52;5.10;;;0.00;99.90;;;;;;10165248;28;83406;-53
2021/12/20 21:31:11;;;;;;;11.90;5.10;;;0.10;99.90;;;;;;10166254;28;83433;-48
2021/12/20 21:36:12;;;;;;;9.10;3.95;;;0.10;99.90;;;;;;10167895;28;84063;-50
2021/12/20 21:41:14;;;;;;;9.93;3.67;;;-0.10;99.90;;;;;;10168723;28;83918;-48
2021/12/20 21:46:16;;;;;;;7.18;3.55;;;-0.10;99.90;;;;;;10169048;28;83764;-48
2021/12/20 21:51:17;;;;;;;9.43;4.30;;;-0.10;99.90;;;;;;10167066;28;84185;-50
2021/12/20 21:56:17;;;;;;;13.13;5.38;;;-0.10;99.90;;;;;;10167836;28;83794;-50
2021/12/20 22:01:18;;;;;;;8.35;4.50;;;-0.30;99.90;;;;;;10166567;28;84079;-50
2021/12/20 22:06:19;;;;;;;5.82;3.33;;;-0.30;99.90;;;;;;10166659;28;84203;-52
2021/12/20 22:11:20;;;;;;;7.45;3.85;;;-0.30;99.90;;;;;;10169557;28;84032;-51
2021/12/20 22:16:20;;;;;;;7.88;4.38;;;-0.30;99.90;;;;;;10169648;28;84100;-50
2021/12/20 22:21:21;;;;;;;12.27;5.45;;;-0.40;99.90;;;;;;10168694;28;83700;-53
2021/12/20 22:26:22;;;;;;;9.40;4.32;;;-0.50;99.90;;;;;;10164295;28;83220;-51
2021/12/20 22:31:23;;;;;;;6.80;2.83;;;-0.50;99.90;;;;;;10167883;28;84342;-54
2021/12/20 22:36:23;;;;;;;6.30;2.85;;;-0.40;99.90;;;;;;10168664;28;83520;-51
2021/12/20 22:41:24;;;;;;;5.72;3.45;;;-0.60;99.90;;;;;;10168394;28;84308;-49
2021/12/20 22:46:25;;;;;;;5.95;2.70;;;-0.50;99.90;;;;;;10168296;28;83698;-52
2021/12/20 22:51:26;;;;;;;7.95;3.28;;;-0.60;99.90;;;;;;10167079;28;84244;-48
2021/12/20 22:56:26;;;;;;;5.10;2.78;;;-0.70;99.90;;;;;;10168325;28;84189;-50
2021/12/20 23:01:27;;;;;;;6.63;2.88;;;-0.60;99.90;;;;;;10168771;28;83626;-48
2021/12/20 23:06:28;;;;;;;10.50;3.65;;;-0.70;99.90;;;;;;10169434;28;83828;-53
2021/12/20 23:11:29;;;;;;;4.68;2.20;;;-0.70;99.90;;;;;;10168873;28;83316;-50
2021/12/20 23:16:35;;;;;;;5.32;3.13;;;-0.80;99.90;;;;;;10166313;28;84226;-52
2021/12/20 23:21:43;;;;;;;4.55;2.58;;;-0.80;99.90;;;;;;10167680;28;84874;-50
2021/12/20 23:26:45;;;;;;;6.75;3.08;;;-0.80;99.90;;;;;;10167557;28;83634;-51
2021/12/20 23:31:46;;;;;;;6.18;2.30;;;-0.80;99.90;;;;;;10186978;23;83399;-44
2021/12/20 23:36:46;;;;;;;7.85;3.78;;;-0.90;99.90;;;;;;10167020;28;84204;-49
2021/12/20 23:41:47;;;;;;;9.43;3.50;;;-0.90;99.90;;;;;;10167199;28;83743;-43
2021/12/20 23:46:48;;;;;;;8.20;4.03;;;-0.90;99.90;;;;;;10165801;28;84129;-42
2021/12/20 23:51:48;;;;;;;5.55;3.00;;;-0.90;99.90;;;;;;10166418;28;84098;-44
2021/12/20 23:56:49;;;;;;;9.00;3.55;;;-0.70;99.90;;;;;;10167217;28;83652;-47
